Погода Мварона неделю

Верхнее Конго, Демократическая Республика Конго

23 - 29 июня
  • 23июня
    Сегодня
    +18°
    +32°
    Практически безоблачно
    ВремяПогодаТемператураВлажностьДавлениеВетер, м/сВероятность осадков
    02:00Ясно и безоблачно+22°C51 %684 мм2.8 м/с4 %
    05:00Облачно с прояснениями+21°C52 %684 мм2.9 м/с4 %
    08:00Облачно с прояснениями+20°C57 %686 мм2.8 м/с4 %
    11:00Небольшая облачность+25°C35 %687 мм3.9 м/с4 %
    14:00Практически безоблачно+31°C29 %686 мм2.6 м/с4 %
    17:00Ясно и безоблачно+31°C38 %684 мм1.0 м/с4 %
    20:00Ясно и безоблачно+26°C47 %684 мм1.7 м/с4 %
    23:00Ясно и безоблачно+22°C49 %685 мм2.5 м/с4 %
  • 24июня
    Понедельник
    +17°
    +33°
    Ясно и безоблачно
    ВремяПогодаТемператураВлажностьДавлениеВетер, м/сВероятность осадков
    02:00Ясно и безоблачно+20°C52 %684 мм2.7 м/с4 %
    05:00Ясно и безоблачно+20°C53 %684 мм3.3 м/с4 %
    08:00Ясно и безоблачно+20°C51 %686 мм3.1 м/с4 %
    11:00Ясно и безоблачно+26°C31 %687 мм3.6 м/с4 %
    14:00Ясно и безоблачно+32°C24 %685 мм2.6 м/с4 %
    17:00Ясно и безоблачно+31°C33 %684 мм1.3 м/с4 %
    20:00Ясно и безоблачно+25°C38 %684 мм2.5 м/с4 %
    23:00Ясно и безоблачно+22°C43 %685 мм3.1 м/с4 %
  • 25июня
    Вторник
    +17°
    +32°
    Ясно и безоблачно
    ВремяПогодаТемператураВлажностьДавлениеВетер, м/сВероятность осадков
    02:00Ясно и безоблачно+20°C46 %684 мм3.0 м/с4 %
    05:00Ясно и безоблачно+19°C48 %684 мм3.2 м/с4 %
    08:00Ясно и безоблачно+19°C50 %686 мм3.1 м/с4 %
    11:00Ясно и безоблачно+25°C32 %686 мм4.0 м/с4 %
    14:00Ясно и безоблачно+31°C24 %685 мм3.2 м/с4 %
    17:00Ясно и безоблачно+31°C30 %684 мм1.6 м/с4 %
    20:00Ясно и безоблачно+24°C38 %683 мм2.8 м/с4 %
    23:00Ясно и безоблачно+21°C41 %684 мм3.2 м/с4 %
  • 26июня
    Среда
    +18°
    +32°
    Ясно и безоблачно
    ВремяПогодаТемператураВлажностьДавлениеВетер, м/сВероятность осадков
    02:00Ясно и безоблачно+19°C46 %683 мм2.6 м/с4 %
    05:00Ясно и безоблачно+19°C47 %684 мм3.5 м/с4 %
    08:00Ясно и безоблачно+19°C51 %686 мм3.3 м/с4 %
    11:00Ясно и безоблачно+26°C33 %686 мм4.2 м/с4 %
    14:00Ясно и безоблачно+32°C22 %685 мм2.9 м/с4 %
    17:00Ясно и безоблачно+30°C28 %684 мм1.5 м/с4 %
    20:00Ясно и безоблачно+24°C33 %684 мм3.1 м/с4 %
    23:00Ясно и безоблачно+21°C38 %685 мм3.3 м/с4 %
  • 27июня
    Четверг
    +18°
    +33°
    Ясно и безоблачно
    ВремяПогодаТемператураВлажностьДавлениеВетер, м/сВероятность осадков
    02:00Ясно и безоблачно+20°C42 %684 мм3.3 м/с4 %
    05:00Ясно и безоблачно+19°C45 %684 мм3.8 м/с4 %
    08:00Ясно и безоблачно+19°C50 %686 мм3.4 м/с4 %
    11:00Ясно и безоблачно+26°C31 %687 мм3.9 м/с4 %
    14:00Ясно и безоблачно+32°C22 %685 мм3.0 м/с4 %
    17:00Ясно и безоблачно+31°C28 %684 мм1.7 м/с4 %
    20:00Ясно и безоблачно+24°C39 %684 мм2.5 м/с4 %
    23:00Ясно и безоблачно+21°C40 %685 мм3.2 м/с4 %
Мы используем cookies
Соглашаюсь